createdAt,value
2019-04-10T00:05:27.712Z,11.87
2019-04-10T00:11:34.577Z,12.07
2019-04-10T00:17:40.921Z,12.17
2019-04-10T00:23:47.166Z,12.40
2019-04-10T00:29:53.034Z,11.97
2019-04-10T00:35:59.513Z,11.50
2019-04-10T00:42:05.492Z,12.20
2019-04-10T00:48:11.977Z,12.20
2019-04-10T00:54:18.254Z,12.17
2019-04-10T01:00:24.038Z,11.73
2019-04-10T01:06:30.405Z,12.20
2019-04-10T01:12:36.380Z,12.33
2019-04-10T01:18:42.227Z,11.73
2019-04-10T01:24:48.074Z,12.67
2019-04-10T01:30:54.946Z,11.33
2019-04-10T01:37:01.152Z,11.17
2019-04-10T01:43:12.937Z,11.70
2019-04-10T01:49:15.652Z,11.37
2019-04-10T01:55:25.763Z,11.83
2019-04-10T02:01:33.179Z,11.83
2019-04-10T02:07:39.013Z,10.87
2019-04-10T02:13:44.716Z,11.23
2019-04-10T02:19:50.748Z,11.00
2019-04-10T02:25:56.966Z,11.37
2019-04-10T02:32:04.131Z,9.70
2019-04-10T02:38:26.138Z,10.17
2019-04-10T02:44:20.179Z,10.60
2019-04-10T02:50:27.370Z,10.33
2019-04-10T02:56:33.632Z,10.10
2019-04-10T03:02:41.590Z,9.93
2019-04-10T03:09:03.451Z,10.80
2019-04-10T03:14:55.124Z,10.43
2019-04-10T03:21:01.176Z,10.67
2019-04-10T03:27:08.709Z,11.20
2019-04-10T03:33:33.774Z,10.57
2019-04-10T03:39:40.558Z,11.77
2019-04-10T03:45:46.731Z,11.23
2019-04-10T03:51:52.753Z,10.83
2019-04-10T03:57:58.738Z,11.50
2019-04-10T04:04:04.980Z,10.90
2019-04-10T04:10:11.330Z,10.33
2019-04-10T04:16:17.381Z,11.10
2019-04-10T04:22:23.167Z,10.90
2019-04-10T04:28:29.820Z,11.17
2019-04-10T04:34:36.714Z,10.63
2019-04-10T04:40:42.521Z,11.40
2019-04-10T04:46:48.362Z,11.43
2019-04-10T04:52:54.208Z,11.30
2019-04-10T04:58:59.989Z,10.57
2019-04-10T05:05:06.637Z,10.83
2019-04-10T05:11:13.825Z,10.60
2019-04-10T05:17:20.008Z,10.17
2019-04-10T05:23:26.679Z,9.50
2019-04-10T05:29:32.658Z,9.43
2019-04-10T05:35:39.774Z,9.93
2019-04-10T05:41:46.937Z,9.17
2019-04-10T05:47:52.878Z,9.07
2019-04-10T05:54:00.064Z,9.27
2019-04-10T06:00:08.404Z,9.40
2019-04-10T06:06:14.591Z,8.77
2019-04-10T06:12:20.418Z,9.37
2019-04-10T06:18:27.156Z,9.30
2019-04-10T06:24:33.095Z,8.80
2019-04-10T06:30:39.801Z,8.60
2019-04-10T06:36:45.950Z,7.97
2019-04-10T06:42:54.897Z,8.10
2019-04-10T06:49:00.419Z,8.70
2019-04-10T06:55:06.685Z,8.03
2019-04-10T07:01:14.681Z,8.73
2019-04-10T07:07:23.870Z,7.97
2019-04-10T07:13:28.695Z,7.90
2019-04-10T07:19:34.530Z,9.03
2019-04-10T07:25:44.617Z,8.73
2019-04-10T07:31:48.785Z,8.67
2019-04-10T07:37:56.966Z,8.50
2019-04-10T07:44:02.188Z,8.67
2019-04-10T07:50:10.329Z,8.83
2019-04-10T07:56:20.388Z,8.87
2019-04-10T08:02:24.096Z,9.50
2019-04-10T08:08:30.078Z,10.13
2019-04-10T08:14:35.947Z,9.67
2019-04-10T08:20:42.502Z,10.47
2019-04-10T08:26:49.234Z,10.73
2019-04-10T08:33:00.713Z,9.43
2019-04-10T08:39:02.901Z,9.73
2019-04-10T08:45:09.224Z,10.23
2019-04-10T08:51:15.650Z,11.50
2019-04-10T08:57:21.548Z,10.63
2019-04-10T09:03:27.386Z,11.70
2019-04-10T09:09:33.919Z,11.27
2019-04-10T09:15:40.277Z,10.93
2019-04-10T09:21:46.256Z,10.83
2019-04-10T09:27:52.071Z,11.37
2019-04-10T09:33:59.091Z,11.67
2019-04-10T09:40:05.765Z,11.80
2019-04-10T09:46:12.638Z,11.63
2019-04-10T09:52:18.785Z,11.53
2019-04-10T09:58:24.629Z,12.00
2019-04-10T10:04:31.274Z,12.40
2019-04-10T10:10:38.392Z,13.43
2019-04-10T10:16:46.275Z,12.70
2019-04-10T10:22:52.127Z,12.57
2019-04-10T10:28:58.586Z,13.67
2019-04-10T10:35:05.069Z,13.37
2019-04-10T10:41:10.944Z,12.07
2019-04-10T10:47:17.068Z,12.33
2019-04-10T10:53:24.066Z,13.10
2019-04-10T10:59:29.896Z,13.67
2019-04-10T11:05:37.190Z,12.97
2019-04-10T11:11:43.419Z,13.70
2019-04-10T11:17:50.000Z,14.13
2019-04-10T11:23:56.150Z,13.60
2019-04-10T11:30:03.487Z,13.40
2019-04-10T11:36:09.891Z,13.90
2019-04-10T11:42:16.440Z,14.27
2019-04-10T11:48:25.637Z,14.10
2019-04-10T11:54:35.471Z,14.07
2019-04-10T12:00:50.453Z,13.73
2019-04-10T12:06:54.058Z,14.37
2019-04-10T12:12:59.885Z,14.40
2019-04-10T12:19:06.696Z,14.20
2019-04-10T12:25:13.047Z,13.63
2019-04-10T12:31:19.734Z,14.53
2019-04-10T12:37:25.646Z,14.90
2019-04-10T12:43:32.567Z,14.17
2019-04-10T12:49:39.409Z,13.83
2019-04-10T12:55:47.193Z,13.13
2019-04-10T13:01:53.987Z,13.53
2019-04-10T13:08:12.897Z,13.70
2019-04-10T13:14:08.574Z,12.57
2019-04-10T13:20:16.079Z,14.00
2019-04-10T13:26:21.911Z,13.03
2019-04-10T13:32:27.877Z,11.97
2019-04-10T13:38:35.440Z,12.47
2019-04-10T13:44:42.539Z,12.70
2019-04-10T13:50:48.752Z,13.50
2019-04-10T13:56:55.223Z,13.33
2019-04-10T14:03:01.797Z,12.83
2019-04-10T14:09:31.273Z,13.30
2019-04-10T14:15:27.389Z,11.70
2019-04-10T14:21:33.275Z,12.23
2019-04-10T14:27:40.905Z,11.50
2019-04-10T14:33:47.183Z,11.77
2019-04-10T14:39:53.650Z,10.93
2019-04-10T14:45:59.741Z,10.10
2019-04-10T14:52:05.770Z,8.97
2019-04-10T14:58:21.454Z,9.00
2019-04-10T15:04:19.953Z,9.57
2019-04-10T15:10:25.737Z,10.13
2019-04-10T15:16:31.876Z,9.00
2019-04-10T15:22:37.903Z,7.93
2019-04-10T15:28:43.850Z,8.10
2019-04-10T15:34:49.741Z,7.97
2019-04-10T15:40:56.696Z,8.40
2019-04-10T15:47:13.437Z,8.47
2019-04-10T15:53:11.723Z,7.13
2019-04-10T15:59:19.882Z,7.67
2019-04-10T16:05:26.189Z,7.40
2019-04-10T16:11:50.157Z,7.40
2019-04-10T16:18:05.266Z,7.73
2019-04-10T16:24:12.295Z,8.00
2019-04-10T16:30:22.015Z,8.37
2019-04-10T16:36:27.981Z,7.80
2019-04-10T16:42:34.830Z,7.53
2019-04-10T16:48:40.636Z,7.47
2019-04-10T16:54:46.567Z,7.63
2019-04-10T17:00:53.768Z,7.90
2019-04-10T17:07:00.856Z,7.70
2019-04-10T17:13:08.807Z,7.43
2019-04-10T17:19:15.976Z,7.47
2019-04-10T17:25:22.186Z,6.97
2019-04-10T17:31:30.813Z,8.23
2019-04-10T17:44:05.622Z,7.43
2019-04-10T17:50:14.141Z,7.40
2019-04-10T17:56:20.162Z,7.70
2019-04-10T18:02:26.355Z,7.47
2019-04-10T18:08:32.753Z,7.90
2019-04-10T18:14:40.888Z,7.10
2019-04-10T18:20:49.518Z,7.77
2019-04-10T18:26:57.873Z,7.87
2019-04-10T18:33:05.075Z,7.57
2019-04-10T18:39:15.714Z,7.60
2019-04-10T18:45:24.198Z,7.47
2019-04-10T18:51:30.263Z,6.73
2019-04-10T18:57:36.275Z,7.13
2019-04-10T19:04:07.785Z,6.77
2019-04-10T19:10:14.327Z,7.17
2019-04-10T19:16:21.480Z,6.80
2019-04-10T19:22:28.985Z,7.40
2019-04-10T19:28:38.540Z,6.17
2019-04-10T19:34:44.036Z,6.27
2019-04-10T19:40:50.079Z,6.03
2019-04-10T19:46:55.988Z,6.23
2019-04-10T19:53:02.650Z,5.10
2019-04-10T19:59:08.870Z,5.60
2019-04-10T20:05:16.961Z,5.27
2019-04-10T20:11:33.817Z,5.40
2019-04-10T20:17:33.323Z,5.60
2019-04-10T20:23:40.392Z,5.23
2019-04-10T20:29:47.731Z,4.70
2019-04-10T20:35:54.353Z,5.07
2019-04-10T20:42:02.514Z,5.27
2019-04-10T20:48:08.988Z,5.63
2019-04-10T20:54:15.224Z,4.87
2019-04-10T21:00:30.073Z,5.30
2019-04-10T21:06:40.877Z,5.60
2019-04-10T21:12:46.494Z,5.37
2019-04-10T21:18:53.892Z,4.87
2019-04-10T21:25:00.993Z,5.40
2019-04-10T21:31:25.525Z,4.47
2019-04-10T21:37:34.655Z,4.53
2019-04-10T21:43:42.969Z,4.87
2019-04-10T21:49:48.878Z,4.53
2019-04-10T21:55:55.721Z,4.17
2019-04-10T22:02:02.723Z,4.47
2019-04-10T22:08:27.507Z,4.43
2019-04-10T22:14:33.546Z,4.20
2019-04-10T22:20:39.629Z,4.20
2019-04-10T22:26:45.442Z,4.30
2019-04-10T22:32:51.887Z,5.03
2019-04-10T22:38:58.378Z,4.03
2019-04-10T22:45:04.494Z,4.00
2019-04-10T22:51:11.179Z,4.20
2019-04-10T22:57:17.288Z,4.07
2019-04-10T23:03:43.156Z,4.10
2019-04-10T23:09:49.116Z,4.03
2019-04-10T23:15:55.714Z,4.27
2019-04-10T23:22:01.511Z,4.60
2019-04-10T23:28:09.506Z,4.57
2019-04-10T23:34:15.395Z,4.80
2019-04-10T23:40:23.011Z,4.37
2019-04-10T23:46:28.832Z,4.90
2019-04-10T23:52:34.558Z,4.53
2019-04-10T23:58:40.549Z,4.70
